»·PEaware :: N9401L KSAN-KSNA

N9401L :: KSAN-KSNA

FLIGHT INFORMATION

Flight Status: Arrived
Operator: Privately registered:
United States
More flights under this callsign
Pilot: Juan D. (11620)
Aircraft: PIPER PA-28R-201 ARROW
(P28R)
More flights by this aircraft type
Origin: KSAN San Diego Intl-Lindbergh
United States
Destination: KSNA John Wayne-Orange Co
United States
More flights between these airports :: More routes between these airports
Route: +OCN V23 SLI
File this flight plan on PilotEdge
Remarks: TEC route SANP3
Altitude:
(Current/Filed)
6,000ft
Speed:
(Current/Filed)
130kts
Departed: 06-Nov-18 05:12 PM
Arrived: 06-Nov-18 05:59 PM
Distance/Time
Traveled:
66nm/0:46
Distance/Time
To Go:
Arrived

Flight Plot

Page will automatically refresh every two minutes.


Map Options




Map Legend


Flown Route
Filed Route
Departure Airport
Arrival Airport
Navaid (VOR, NDB)
Fix

Horizontal Profiles

Position Reports

Time Latitude Longitude Heading Altitude Ground
Speed
06-Nov-18 16:57 32.732421 -117.176641 193 20ft 0kts
06-Nov-18 16:58 32.732421 -117.176641 193 20ft 0kts
06-Nov-18 16:59 32.732421 -117.176641 193 20ft 0kts
06-Nov-18 17:00 32.732421 -117.176641 193 20ft 0kts
06-Nov-18 17:01 32.732421 -117.176641 193 20ft 0kts
06-Nov-18 17:02 32.732421 -117.176641 193 20ft 0kts
06-Nov-18 17:03 32.732421 -117.176641 194 20ft 0kts
06-Nov-18 17:04 32.732421 -117.176641 194 20ft 0kts
06-Nov-18 17:05 32.732421 -117.176641 194 20ft 0kts
06-Nov-18 17:06 32.732421 -117.176641 194 20ft 0kts
06-Nov-18 17:07 32.732420 -117.176641 194 20ft 0kts
06-Nov-18 17:08 32.731561 -117.176554 143 20ft 7kts
06-Nov-18 17:09 32.731098 -117.175700 123 20ft 0kts
06-Nov-18 17:10 32.731098 -117.175700 123 20ft 0kts
06-Nov-18 17:11 32.731098 -117.175700 123 20ft 0kts
06-Nov-18 17:12 32.731098 -117.175700 123 20ft 0kts
06-Nov-18 17:13 32.731098 -117.175700 123 20ft 0kts
06-Nov-18 17:14 32.730160 -117.175493 249 20ft 24kts
06-Nov-18 17:15 32.738491 -117.191357 320 672ft 81kts
06-Nov-18 17:16 32.754451 -117.204213 320 1411ft 85kts
06-Nov-18 17:17 32.771316 -117.218148 320 2012ft 106kts
06-Nov-18 17:18 32.790765 -117.234993 320 1982ft 134kts
06-Nov-18 17:19 32.822147 -117.262420 320 2037ft 133kts
06-Nov-18 17:20 32.847507 -117.283845 320 2936ft 108kts
06-Nov-18 17:21 32.871033 -117.303234 320 3679ft 102kts
06-Nov-18 17:22 32.895563 -117.325586 359 4283ft 119kts
06-Nov-18 17:23 32.923228 -117.327875 339 4933ft 107kts
06-Nov-18 17:24 32.951575 -117.336475 340 5565ft 104kts
06-Nov-18 17:25 32.985394 -117.346237 341 5982ft 121kts
06-Nov-18 17:26 33.013583 -117.354142 342 5978ft 129kts
06-Nov-18 17:27 33.047497 -117.363637 342 5977ft 129kts
06-Nov-18 17:28 33.081557 -117.373211 342 5978ft 129kts
06-Nov-18 17:29 33.114370 -117.382451 342 5978ft 129kts
06-Nov-18 17:30 33.145582 -117.391248 342 5978ft 129kts
06-Nov-18 17:31 33.176752 -117.400042 342 5979ft 129kts
06-Nov-18 17:32 33.211327 -117.409804 342 5979ft 129kts
06-Nov-18 17:33 33.247660 -117.428305 315 5989ft 124kts
06-Nov-18 17:34 33.280362 -117.464901 313 5991ft 126kts
06-Nov-18 17:35 33.315238 -117.505127 313 5992ft 134kts
06-Nov-18 17:36 33.350789 -117.546441 312 5993ft 133kts
06-Nov-18 17:37 33.385377 -117.586854 312 5994ft 133kts
06-Nov-18 17:38 33.417870 -117.624861 312 5994ft 133kts
06-Nov-18 17:39 33.448010 -117.660154 312 5995ft 134kts
06-Nov-18 17:40 33.475892 -117.692836 311 5993ft 134kts
06-Nov-18 17:41 33.503516 -117.725278 311 5991ft 135kts
06-Nov-18 17:42 33.530708 -117.757250 311 5989ft 135kts
06-Nov-18 17:43 33.560790 -117.774512 357 5988ft 144kts
06-Nov-18 17:44 33.593835 -117.772928 357 5988ft 144kts
06-Nov-18 17:45 33.624893 -117.771422 357 5987ft 144kts
06-Nov-18 17:46 33.655289 -117.769936 357 5986ft 144kts
06-Nov-18 17:47 33.684765 -117.765807 5 5619ft 163kts
06-Nov-18 17:48 33.717551 -117.759203 5 5116ft 162kts
06-Nov-18 17:49 33.752647 -117.752245 5 4604ft 161kts
06-Nov-18 17:50 33.788410 -117.741244 19 3965ft 162kts
06-Nov-18 17:51 33.821653 -117.724469 19 3984ft 147kts
06-Nov-18 17:52 33.853548 -117.708294 16 3981ft 146kts
06-Nov-18 17:53 33.865710 -117.732158 231 3981ft 131kts
06-Nov-18 17:54 33.846741 -117.757916 228 3846ft 134kts
06-Nov-18 17:55 33.822230 -117.775543 207 3383ft 150kts
06-Nov-18 17:56 33.797139 -117.791134 209 3022ft 146kts
06-Nov-18 17:57 33.773772 -117.806619 207 2307ft 159kts
06-Nov-18 17:58 33.750412 -117.819164 200 2003ft 133kts
06-Nov-18 17:59 33.728578 -117.830248 209 1610ft 145kts
06-Nov-18 18:00 33.705557 -117.847467 210 768ft 161kts
06-Nov-18 18:01 33.686942 -117.859705 208 254ft 68kts
06-Nov-18 18:02 33.678048 -117.865465 205 59ft 23kts
06-Nov-18 18:03 33.678302 -117.864447 28 59ft 22kts

Navigation Log

Ident Type
Flight plan parsing failed, navigation log unavailable